Time;durP1;ratioP1;P1;durP2;ratioP2;P2;SDS_P1;SDS_P2;PMS_P1;PMS_P2;Temp;Humidity;BMP_temperature;BMP_pressure;BME280_temperature;BME280_humidity;BME280_pressure;Samples;Min_cycle;Max_cycle;Signal;HPM_P1;HPM_P2
2022/02/24 00:00:30;;;;;;;45.13;16.80;;;;;;;6.32;53.03;100950.72;6105823;22;96801;-88
2022/02/24 00:02:56;;;;;;;36.40;13.60;;;;;;;6.58;52.80;100995.72;6106858;22;101166;-88
2022/02/24 00:05:22;;;;;;;36.43;15.37;;;;;;;6.59;52.88;100996.59;6105632;22;101316;-88
2022/02/24 00:07:47;;;;;;;44.85;16.98;;;;;;;6.40;53.19;100985.44;6109227;22;97011;-88
2022/02/24 00:10:14;;;;;;;45.10;17.83;;;;;;;6.35;53.18;100976.75;6145844;22;97032;-87
2022/02/24 00:12:41;;;;;;;36.83;14.90;;;;;;;6.38;53.31;100997.59;6135879;22;100568;-88
2022/02/24 00:15:08;;;;;;;43.27;15.53;;;;;;;6.11;53.49;100965.59;6132839;22;98135;-88
2022/02/24 00:17:34;;;;;;;38.47;15.50;;;;;;;6.16;53.61;100969.91;6106485;22;97022;-87
2022/02/24 00:20:00;;;;;;;45.77;16.47;;;;;;;6.25;52.89;100970.72;6133134;22;96907;-88
2022/02/24 00:22:26;;;;;;;44.67;17.87;;;;;;;6.24;53.34;100976.81;6106728;22;100366;-88
2022/02/24 00:24:52;;;;;;;41.17;14.67;;;;;;;6.20;53.36;100966.44;6157746;22;98302;-87
2022/02/24 00:27:18;;;;;;;43.73;17.53;;;;;;;6.05;53.36;100951.72;6132732;22;97029;-88
2022/02/24 00:29:44;;;;;;;38.43;16.20;;;;;;;6.12;53.80;100969.94;6132446;22;96868;-88
2022/02/24 00:32:09;;;;;;;37.50;14.53;;;;;;;6.24;53.45;100982.03;6132440;22;100479;-88
2022/02/24 00:34:35;;;;;;;32.00;13.17;;;;;;;6.37;53.22;100976.72;6107411;22;101263;-88
2022/02/24 00:37:02;;;;;;;46.13;14.67;;;;;;;6.40;52.88;100984.53;6108009;22;96568;-89
2022/02/24 00:39:28;;;;;;;32.50;13.00;;;;;;;6.31;53.02;100982.84;6132374;22;96770;-87
2022/02/24 00:41:54;;;;;;;34.63;13.10;;;;;;;6.33;52.97;100978.50;6106773;22;100606;-87
2022/02/24 00:44:19;;;;;;;35.57;13.73;;;;;;;6.11;53.35;100959.53;6109226;22;101597;-87
2022/02/24 00:46:45;;;;;;;32.83;12.70;;;;;;;6.19;53.45;100975.13;6134195;22;96593;-88
2022/02/24 00:49:11;;;;;;;35.77;12.33;;;;;;;6.08;53.39;100950.00;6157827;22;96773;-87
2022/02/24 00:51:37;;;;;;;41.37;14.87;;;;;;;6.14;53.60;100969.94;6106678;22;100623;-88
2022/02/24 00:54:03;;;;;;;32.13;13.23;;;;;;;6.24;53.26;100974.22;6107651;22;101385;-88
2022/02/24 00:56:28;;;;;;;31.43;12.27;;;;;;;6.23;53.27;100955.97;6107010;22;96719;-88
2022/02/24 00:58:54;;;;;;;31.23;12.13;;;;;;;6.18;53.33;100950.78;6108473;22;96496;-88
2022/02/24 01:01:19;;;;;;;39.90;13.23;;;;;;;6.23;52.95;100958.59;6131862;22;100213;-88
2022/02/24 01:03:45;;;;;;;28.97;11.10;;;;;;;6.21;53.30;100955.97;6106701;22;101162;-87
2022/02/24 01:06:11;;;;;;;33.00;11.47;;;;;;;6.12;52.99;100938.66;6107263;22;96635;-89
2022/02/24 01:08:36;;;;;;;33.23;11.40;;;;;;;6.00;53.18;100927.44;6132098;22;96779;-87
2022/02/24 01:11:03;;;;;;;33.47;12.20;;;;;;;6.08;53.23;100950.00;6156703;22;101414;-88
2022/02/24 01:13:29;;;;;;;29.93;11.80;;;;;;;6.01;53.87;100953.47;6106946;22;101713;-87
2022/02/24 01:15:54;;;;;;;26.17;10.53;;;;;;;6.01;53.56;100947.41;6107620;22;97167;-88
2022/02/24 01:18:20;;;;;;;31.20;11.40;;;;;;;5.81;53.27;100904.03;6133264;22;96853;-88
2022/02/24 01:20:46;;;;;;;30.23;10.40;;;;;;;5.75;53.41;100906.69;6130892;22;100226;-88
2022/02/24 01:23:11;;;;;;;32.43;11.43;;;;;;;5.93;53.61;100939.63;6108297;22;101646;-87
2022/02/24 01:25:37;;;;;;;25.17;10.73;;;;;;;5.93;53.70;100929.19;6106366;22;97110;-87
2022/02/24 01:28:03;;;;;;;29.93;10.57;;;;;;;5.61;53.91;100905.88;6132855;22;97045;-88
2022/02/24 01:30:29;;;;;;;34.00;10.60;;;;;;;5.56;54.13;100908.50;6105490;22;101584;-85
2022/02/24 01:32:55;;;;;;;28.20;10.40;;;;;;;5.53;54.47;100918.94;6107501;22;100009;-88
2022/02/24 01:35:21;;;;;;;22.97;9.50;;;;;;;5.53;54.62;100913.75;6157416;22;97174;-87
2022/02/24 01:37:47;;;;;;;27.93;9.77;;;;;;;5.63;54.37;100924.97;6106826;22;97240;-87
2022/02/24 01:40:14;;;;;;;28.97;10.33;;;;;;;5.61;54.38;100921.50;6130767;22;101578;-87
2022/02/24 01:42:40;;;;;;;26.93;10.33;;;;;;;5.54;54.42;100915.47;6104300;22;101144;-88
2022/02/24 01:45:08;;;;;;;27.67;9.47;;;;;;;5.45;54.40;100905.94;6107751;22;96480;-87
2022/02/24 01:47:34;;;;;;;23.93;10.20;;;;;;;5.48;54.48;100897.25;6131546;22;96964;-87
2022/02/24 01:50:00;;;;;;;29.00;10.03;;;;;;;5.59;54.45;100900.69;6106539;22;101553;-88
2022/02/24 01:52:26;;;;;;;22.40;9.13;;;;;;;5.57;54.65;100894.59;6106598;22;101574;-87
2022/02/24 01:54:52;;;;;;;28.70;8.97;;;;;;;5.60;54.01;100897.19;6131135;22;96549;-88
2022/02/24 01:57:18;;;;;;;24.80;8.70;;;;;;;5.58;54.44;100882.44;6132240;22;96812;-88
2022/02/24 01:59:43;;;;;;;26.87;9.10;;;;;;;5.63;54.36;100889.38;6106510;22;99880;-88
2022/02/24 02:02:09;;;;;;;25.47;9.30;;;;;;;5.58;54.32;100887.66;6131609;22;97235;-88
2022/02/24 02:04:36;;;;;;;24.13;9.70;;;;;;;5.56;54.29;100884.22;6131596;22;96541;-87
2022/02/24 02:07:02;;;;;;;30.57;9.33;;;;;;;5.50;54.41;100882.50;6107590;22;96582;-88
2022/02/24 02:09:28;;;;;;;29.40;10.03;;;;;;;5.45;54.77;100871.22;6107395;22;101184;-88
2022/02/24 02:11:54;;;;;;;22.63;9.37;;;;;;;5.46;54.14;100859.94;6107262;22;101739;-88
2022/02/24 02:14:20;;;;;;;26.20;9.43;;;;;;;5.36;54.43;100859.13;6132689;22;96956;-87
2022/02/24 02:16:48;;;;;;;27.80;9.63;;;;;;;5.39;54.54;100871.25;6131725;22;96948;-88
2022/02/24 02:19:14;;;;;;;28.40;9.63;;;;;;;5.27;54.58;100845.28;6131484;22;100227;-87
2022/02/24 02:21:39;;;;;;;27.07;9.97;;;;;;;5.31;54.71;100860.00;6130542;22;99684;-88
2022/02/24 02:24:06;;;;;;;29.07;11.03;;;;;;;5.25;54.98;100860.88;6107637;22;96575;-88
2022/02/24 02:26:32;;;;;;;26.33;10.37;;;;;;;5.19;54.97;100874.78;6131913;22;96865;-86
2022/02/24 02:29:02;;;;;;;24.03;9.13;;;;;;;5.04;55.26;100845.34;6132040;22;98484;-87
2022/02/24 02:31:27;;;;;;;25.30;10.43;;;;;;;5.06;55.30;100854.00;6131062;22;99414;-88
2022/02/24 02:34:04;;;;;;;29.30;10.50;;;;;;;5.17;54.93;100870.47;6106955;22;96605;-87
2022/02/24 02:36:29;;;;;;;25.13;10.43;;;;;;;5.04;55.25;100863.56;6107455;22;97151;-87
2022/02/24 02:38:55;;;;;;;25.17;10.83;;;;;;;4.98;55.25;100846.25;6131342;22;97787;-87
2022/02/24 02:41:21;;;;;;;27.20;11.60;;;;;;;5.10;55.31;100869.63;6106496;22;100991;-87
2022/02/24 02:43:47;;;;;;;28.80;10.27;;;;;;;5.13;55.03;100869.59;6106360;22;96530;-87
2022/02/24 02:46:13;;;;;;;24.53;9.13;;;;;;;5.15;55.01;100865.28;6106725;22;97004;-87
2022/02/24 02:48:39;;;;;;;28.60;9.80;;;;;;;5.05;55.50;100850.53;6156274;22;98348;-87
2022/02/24 02:51:04;;;;;;;27.57;9.47;;;;;;;5.10;55.24;100851.41;6131468;22;100806;-88
2022/02/24 02:53:30;;;;;;;27.97;9.57;;;;;;;5.05;55.54;100834.06;6132313;22;96553;-87
2022/02/24 02:55:55;;;;;;;24.87;9.20;;;;;;;4.84;55.32;100778.63;6131042;22;96853;-87
2022/02/24 02:58:21;;;;;;;23.40;8.80;;;;;;;5.18;55.15;100839.22;6131750;22;100736;-87
2022/02/24 03:00:46;;;;;;;21.97;8.57;;;;;;;5.07;55.02;100824.53;6130356;22;97304;-88
2022/02/24 03:03:12;;;;;;;23.27;9.00;;;;;;;5.12;55.42;100846.19;6132428;22;96582;-87
2022/02/24 03:05:38;;;;;;;24.60;9.43;;;;;;;4.95;55.36;100799.41;6105836;22;96898;-86
2022/02/24 03:08:05;;;;;;;23.87;9.83;;;;;;;5.13;55.29;100840.97;6131266;22;101219;-87
2022/02/24 03:10:30;;;;;;;29.57;9.10;;;;;;;4.82;55.07;100769.09;6108275;22;101536;-87
2022/02/24 03:12:56;;;;;;;29.27;9.87;;;;;;;5.27;55.19;100837.47;6132068;22;96537;-87
2022/02/24 03:15:22;;;;;;;21.70;9.37;;;;;;;5.22;55.17;100825.31;6132954;22;96904;-87
2022/02/24 03:17:49;;;;;;;22.77;8.73;;;;;;;5.17;55.09;100828.81;6106812;22;99871;-87
2022/02/24 03:20:15;;;;;;;24.07;9.27;;;;;;;5.13;55.38;100816.69;6132070;22;101470;-87
2022/02/24 03:22:42;;;;;;;24.80;9.63;;;;;;;5.05;55.63;100810.66;6131873;22;96953;-87
2022/02/24 03:25:08;;;;;;;22.47;9.10;;;;;;;5.05;55.30;100803.69;6132594;22;96865;-88
2022/02/24 03:27:34;;;;;;;27.50;10.00;;;;;;;5.02;55.63;100808.91;6106246;22;101231;-87
2022/02/24 03:30:00;;;;;;;21.63;9.07;;;;;;;5.04;55.49;100807.19;6106300;22;101331;-87
2022/02/24 03:32:26;;;;;;;27.77;9.60;;;;;;;4.93;55.35;100775.13;6131317;22;96490;-87
2022/02/24 03:34:52;;;;;;;22.90;9.60;;;;;;;5.01;55.33;100803.72;6131818;22;96879;-88
2022/02/24 03:37:17;;;;;;;22.70;9.57;;;;;;;4.95;55.72;100808.09;6131240;22;100079;-87
2022/02/24 03:39:43;;;;;;;26.23;10.03;;;;;;;4.87;55.77;100794.22;6131148;22;101608;-87
2022/02/24 03:42:09;;;;;;;25.53;8.93;;;;;;;5.09;55.17;100809.75;6131590;22;96891;-88
2022/02/24 03:44:35;;;;;;;25.13;9.00;;;;;;;4.80;55.45;100779.53;6132257;22;96741;-87
2022/02/24 03:47:00;;;;;;;20.03;9.30;;;;;;;4.80;55.89;100802.03;6132077;22;99627;-86
2022/02/24 03:49:26;;;;;;;20.63;8.13;;;;;;;4.72;56.18;100802.94;6109478;22;101246;-87
2022/02/24 03:51:51;;;;;;;18.07;6.83;;;;;;;4.64;56.01;100791.69;6150180;22;96688;-86
2022/02/24 03:54:18;;;;;;;15.87;7.00;;;;;;;4.67;56.47;100793.41;6120757;22;96803;-88
2022/02/24 03:56:44;;;;;;;24.63;7.23;;;;;;;4.53;56.43;100777.84;6105440;22;101147;-86
2022/02/24 03:59:10;;;;;;;18.10;7.20;;;;;;;4.49;56.33;100781.31;6106868;22;101226;-87
2022/02/24 04:01:36;;;;;;;29.20;7.27;;;;;;;4.41;56.70;100783.06;6131683;22;96978;-87
2022/02/24 04:04:01;;;;;;;15.13;6.20;;;;;;;4.31;57.24;100775.28;6131383;22;97253;-87
2022/02/24 04:06:27;;;;;;;19.57;5.80;;;;;;;4.39;56.80;100777.00;6131279;22;99801;-88
2022/02/24 04:08:53;;;;;;;15.77;6.50;;;;;;;4.38;56.82;100770.94;6106115;22;99789;-85
2022/02/24 04:11:18;;;;;;;13.37;5.63;;;;;;;4.36;56.96;100761.41;6106707;22;97250;-87
2022/02/24 04:13:44;;;;;;;12.83;5.80;;;;;;;3.96;57.25;100691.31;6131827;22;96571;-87
2022/02/24 04:16:10;;;;;;;14.17;6.17;;;;;;;4.39;56.82;100754.47;6131327;22;98317;-87
2022/02/24 04:18:35;;;;;;;14.07;6.03;;;;;;;4.41;56.90;100751.88;6106650;22;100966;-86
2022/02/24 04:21:01;;;;;;;17.07;6.90;;;;;;;4.42;56.95;100744.09;6130477;22;96556;-87
2022/02/24 04:23:26;;;;;;;25.87;6.10;;;;;;;4.36;56.75;100743.22;6132048;22;96644;-87
2022/02/24 04:25:52;;;;;;;16.20;5.60;;;;;;;4.34;56.90;100737.16;6105097;22;101592;-87
2022/02/24 04:28:18;;;;;;;17.40;5.83;;;;;;;4.19;57.38;100712.94;6156571;22;96975;-87
2022/02/24 04:30:43;;;;;;;16.23;5.33;;;;;;;4.34;56.95;100724.16;6130782;22;96663;-87
2022/02/24 04:33:09;;;;;;;13.37;5.30;;;;;;;4.30;56.95;100693.00;6107018;22;96737;-88
2022/02/24 04:35:35;;;;;;;14.43;5.70;;;;;;;4.42;56.80;100712.00;6130570;22;100188;-87
2022/02/24 04:38:01;;;;;;;15.27;5.30;;;;;;;4.31;56.72;100714.66;6106152;22;101411;-87
2022/02/24 04:40:27;;;;;;;14.63;5.57;;;;;;;4.30;57.05;100720.69;6131201;22;97148;-87
2022/02/24 04:42:52;;;;;;;15.90;5.43;;;;;;;4.29;56.92;100718.97;6130876;22;96660;-87
2022/02/24 04:45:18;;;;;;;13.10;4.93;;;;;;;4.30;56.90;100720.69;6129845;22;100779;-87
2022/02/24 04:47:44;;;;;;;17.77;5.33;;;;;;;4.20;57.20;100695.59;6130921;22;99798;-88
2022/02/24 04:50:10;;;;;;;15.73;6.70;;;;;;;4.25;57.09;100714.66;6106115;22;96889;-87
2022/02/24 04:52:36;;;;;;;12.97;5.40;;;;;;;4.23;56.95;100701.66;6106437;22;97049;-88
2022/02/24 04:55:06;;;;;;;15.73;5.23;;;;;;;4.24;57.13;100695.56;6156880;22;97372;-88
2022/02/24 04:57:32;;;;;;;17.37;6.43;;;;;;;4.00;56.90;100651.47;6131821;22;98201;-87
2022/02/24 04:59:57;;;;;;;15.10;5.70;;;;;;;4.00;57.26;100652.31;6107254;22;97322;-88
2022/02/24 05:02:23;;;;;;;15.83;5.83;;;;;;;4.21;57.03;100682.59;6132992;22;97054;-87
2022/02/24 05:04:49;;;;;;;19.80;5.80;;;;;;;4.21;56.98;100682.59;6131666;22;101162;-86
2022/02/24 05:07:15;;;;;;;17.93;6.33;;;;;;;4.13;57.39;100678.28;6131925;22;101551;-88
2022/02/24 05:09:42;;;;;;;14.10;5.90;;;;;;;4.12;57.30;100677.41;6107354;22;97238;-88
2022/02/24 05:12:08;;;;;;;19.37;5.83;;;;;;;4.13;57.52;100666.19;6107056;22;97095;-87
2022/02/24 05:14:34;;;;;;;15.60;6.30;;;;;;;4.16;57.47;100655.78;6107325;22;101232;-87
2022/02/24 05:16:59;;;;;;;16.60;5.43;;;;;;;4.18;57.51;100651.41;6106680;22;101063;-87
2022/02/24 05:19:25;;;;;;;17.17;5.77;;;;;;;4.34;57.28;100667.00;6132979;22;96579;-86
2022/02/24 05:21:51;;;;;;;20.53;6.00;;;;;;;4.40;56.83;100662.63;6131764;22;97095;-87
2022/02/24 05:24:17;;;;;;;16.07;5.37;;;;;;;4.32;56.77;100652.25;6132209;22;96523;-86
2022/02/24 05:26:43;;;;;;;21.00;6.50;;;;;;;4.25;56.83;100621.97;6107236;22;101366;-87
2022/02/24 05:29:09;;;;;;;14.73;5.63;;;;;;;4.50;56.60;100664.31;6107306;22;97039;-87
2022/02/24 05:31:34;;;;;;;18.30;6.30;;;;;;;4.49;56.55;100647.00;6107809;22;96822;-87
2022/02/24 05:34:00;;;;;;;18.93;6.77;;;;;;;4.35;56.49;100627.13;6155685;22;98009;-87
2022/02/24 05:36:25;;;;;;;19.57;6.53;;;;;;;4.43;56.54;100644.41;6106790;22;101272;-87
2022/02/24 05:38:51;;;;;;;19.03;7.03;;;;;;;4.38;56.79;100648.75;6132261;22;96561;-85
2022/02/24 05:41:17;;;;;;;25.37;7.40;;;;;;;4.40;56.43;100648.78;6131991;22;96741;-87
2022/02/24 05:43:44;;;;;;;25.20;6.73;;;;;;;4.37;56.57;100646.19;6131661;22;101236;-87
2022/02/24 05:46:09;;;;;;;19.37;7.27;;;;;;;4.39;56.42;100652.22;6105972;22;100649;-87
2022/02/24 05:48:35;;;;;;;26.37;7.83;;;;;;;4.29;56.51;100646.19;6132115;22;96807;-87
2022/02/24 05:51:01;;;;;;;16.47;6.70;;;;;;;4.27;57.04;100643.59;6131268;22;96719;-87
2022/02/24 05:53:26;;;;;;;24.83;8.30;;;;;;;4.22;56.87;100627.16;6132113;22;98281;-87
2022/02/24 05:55:52;;;;;;;23.90;7.80;;;;;;;4.26;57.16;100641.00;6130599;22;97717;-86
2022/02/24 05:58:17;;;;;;;23.70;7.80;;;;;;;4.17;56.75;100626.31;6130304;22;96625;-82
2022/02/24 06:00:43;;;;;;;26.30;7.63;;;;;;;4.25;56.99;100634.09;6129939;22;97143;-93
2022/02/24 06:03:08;;;;;;;25.13;6.73;;;;;;;4.21;57.12;100628.03;6131292;22;97358;-88
2022/02/24 06:05:34;;;;;;;20.33;7.73;;;;;;;4.20;57.20;100630.63;6105284;22;100858;-89
2022/02/24 06:08:00;;;;;;;26.80;7.77;;;;;;;4.18;57.14;100603.78;6129378;22;96598;-84
2022/02/24 06:10:25;;;;;;;21.93;8.43;;;;;;;4.15;57.08;100614.19;6130961;22;96779;-87
2022/02/24 06:12:55;;;;;;;26.10;8.97;;;;;;;4.18;57.57;100612.44;6156815;22;98228;-89
2022/02/24 06:15:21;;;;;;;24.83;7.70;;;;;;;4.16;56.99;100601.22;6182917;22;99620;-88
2022/02/24 06:17:46;;;;;;;22.93;8.20;;;;;;;4.20;57.33;100596.84;6131684;22;97080;-88
2022/02/24 06:20:12;;;;;;;21.63;8.60;;;;;;;4.24;57.08;100593.38;6105968;22;97381;-87
2022/02/24 06:22:38;;;;;;;23.00;7.90;;;;;;;4.29;57.49;100591.63;6105142;22;100959;-87
2022/02/24 06:25:04;;;;;;;20.90;7.73;;;;;;;4.39;56.98;100598.50;6130414;22;101381;-87
2022/02/24 06:27:29;;;;;;;23.97;7.97;;;;;;;4.35;57.10;100596.78;6106502;22;97169;-89
2022/02/24 06:29:55;;;;;;;25.27;8.63;;;;;;;4.40;57.29;100589.84;6132030;22;96727;-87
2022/02/24 06:32:20;;;;;;;20.23;8.43;;;;;;;4.45;57.32;100579.41;6130282;22;101432;-89
2022/02/24 06:34:46;;;;;;;21.33;7.87;;;;;;;4.61;57.51;100580.22;6131049;22;101507;-74
2022/02/24 06:37:11;;;;;;;26.53;8.13;;;;;;;4.65;57.46;100574.97;6129029;22;96661;-76
2022/02/24 06:39:37;;;;;;;17.10;6.93;;;;;;;4.74;57.34;100579.25;6105742;22;96880;-75
2022/02/24 06:42:03;;;;;;;24.80;7.23;;;;;;;4.85;56.93;100567.03;6127971;22;100732;-77
2022/02/24 06:44:30;;;;;;;23.63;6.47;;;;;;;4.80;56.84;100542.81;6129834;22;100775;-85
2022/02/24 06:46:56;;;;;;;20.10;6.20;;;;;;;5.12;56.43;100567.72;6129007;22;96641;-86
2022/02/24 06:49:22;;;;;;;15.40;6.53;;;;;;;5.27;56.19;100577.16;6106183;22;96788;-84
2022/02/24 06:51:50;;;;;;;18.07;6.07;;;;;;;5.23;55.70;100552.88;6130583;22;97380;-82
2022/02/24 06:54:16;;;;;;;14.33;5.00;;;;;;;5.24;55.73;100556.38;6105503;22;100932;-82
2022/02/24 06:56:42;;;;;;;14.13;5.17;;;;;;;5.30;55.45;100556.31;6130773;22;96628;-82
2022/02/24 06:59:07;;;;;;;15.03;5.43;;;;;;;5.26;55.41;100536.38;6130535;22;96660;-82
2022/02/24 07:01:33;;;;;;;15.30;4.00;;;;;;;5.47;55.31;100564.84;6130712;22;97901;-82
2022/02/24 07:03:58;;;;;;;15.57;4.50;;;;;;;5.50;55.25;100556.09;6130845;22;97886;-82
2022/02/24 07:06:24;;;;;;;13.57;4.57;;;;;;;5.58;55.38;100546.47;6130768;22;96591;-82
2022/02/24 07:08:50;;;;;;;14.43;4.63;;;;;;;5.65;54.87;100546.41;6106212;22;97076;-82
2022/02/24 07:11:15;;;;;;;14.77;5.33;;;;;;;5.74;54.62;100544.59;6129046;22;97462;-83
2022/02/24 07:13:41;;;;;;;14.47;5.10;;;;;;;5.83;54.38;100539.28;6156509;22;97459;-89
2022/02/24 07:16:07;;;;;;;15.07;5.57;;;;;;;5.94;54.19;100544.41;6131083;22;96894;-90
2022/02/24 07:18:33;;;;;;;12.40;4.73;;;;;;;5.99;54.32;100546.09;6157066;22;97184;-89
2022/02/24 07:20:58;;;;;;;15.23;5.17;;;;;;;5.97;53.96;100510.50;6105260;22;101662;-85
2022/02/24 07:23:24;;;;;;;13.67;4.50;;;;;;;6.30;53.55;100528.31;6131013;22;101110;-86
2022/02/24 07:25:55;;;;;;;12.33;3.93;;;;;;;6.22;52.98;100484.97;6155420;22;96999;-84
2022/02/24 07:28:21;;;;;;;17.33;4.20;;;;;;;6.70;53.21;100532.13;6132213;22;96518;-83
2022/02/24 07:30:47;;;;;;;13.33;3.80;;;;;;;6.96;52.81;100516.06;6130634;22;101451;-84
2022/02/24 07:33:12;;;;;;;12.83;3.87;;;;;;;7.17;51.38;100512.22;6131564;22;101311;-84
2022/02/24 07:35:38;;;;;;;8.83;3.10;;;;;;;7.31;51.47;100512.84;6107546;22;96476;-83
2022/02/24 07:38:03;;;;;;;12.37;3.47;;;;;;;7.49;51.12;100516.88;6183994;22;97374;-83
2022/02/24 07:40:29;;;;;;;15.37;3.83;;;;;;;7.60;50.01;100511.47;6128898;22;101221;-83
2022/02/24 07:42:55;;;;;;;12.67;3.60;;;;;;;7.76;50.84;100505.03;6103644;22;101577;-82
2022/02/24 07:45:20;;;;;;;11.30;3.90;;;;;;;7.98;50.02;100502.88;6129039;22;97305;-83
2022/02/24 07:47:46;;;;;;;11.70;4.50;;;;;;;8.06;49.71;100476.59;6128797;22;96807;-82
2022/02/24 07:50:13;;;;;;;12.87;4.40;;;;;;;8.45;49.75;100508.00;6128041;22;97898;-82
2022/02/24 07:52:40;;;;;;;9.23;4.25;;;;;;;8.72;49.02;100509.13;6104021;22;101449;-82
2022/02/24 07:55:07;;;;;;;14.15;5.20;;;;;;;8.86;48.02;100501.81;6129682;22;96630;-83
2022/02/24 07:57:32;;;;;;;33.22;12.27;;;;;;;9.12;48.39;100505.56;6105170;22;96845;-81
2022/02/24 07:59:58;;;;;;;28.25;11.45;;;;;;;9.31;47.80;100496.34;6129025;22;97355;-80
2022/02/24 08:02:24;;;;;;;20.05;7.47;;;;;;;9.49;46.99;100485.38;6152411;22;99240;-81
2022/02/24 08:04:49;;;;;;;41.95;13.40;;;;;;;9.74;47.00;100493.44;6128442;22;97233;-81
2022/02/24 08:07:15;;;;;;;47.50;16.55;;;;;;;9.80;46.40;100486.28;6152855;22;96784;-84
2022/02/24 08:09:40;;;;;;;40.25;15.77;;;;;;;9.83;46.20;100473.97;6127527;22;101444;-81
2022/02/24 08:14:52;;;;;;;17.33;7.13;;;;;;;10.36;45.04;100470.69;6155095;22;96813;-83
2022/02/24 08:17:19;;;;;;;28.65;10.50;;;;;;;10.63;44.64;100476.81;6124198;22;97379;-84
2022/02/24 08:19:44;;;;;;;14.68;6.25;;;;;;;10.84;43.46;100481.38;6100702;22;101069;-82
2022/02/24 08:22:10;;;;;;;16.65;6.95;;;;;;;10.91;43.51;100468.03;6102127;22;101512;-83
2022/02/24 08:24:35;;;;;;;19.27;7.22;;;;;;;11.06;43.63;100460.53;6150765;22;96755;-83
2022/02/24 08:27:01;;;;;;;15.55;6.10;;;;;;;11.24;42.69;100468.69;6126311;22;96810;-83
2022/02/24 08:29:27;;;;;;;16.45;6.55;;;;;;;11.30;42.92;100464.06;6152781;22;97426;-82
2022/02/24 08:31:52;;;;;;;48.63;15.93;;;;;;;11.23;42.21;100457.31;6127884;22;101055;-81
2022/02/24 08:34:18;;;;;;;25.55;9.55;;;;;;;11.27;41.79;100461.56;6102561;22;96663;-82
2022/02/24 08:36:43;;;;;;;27.38;10.05;;;;;;;11.43;42.50;100456.63;6127633;22;97311;-82
2022/02/24 08:39:09;;;;;;;26.15;10.63;;;;;;;11.57;42.38;100449.09;6103709;22;101518;-81
2022/02/24 08:41:35;;;;;;;23.90;7.93;;;;;;;11.77;41.86;100447.50;6131235;22;100923;-82
2022/02/24 08:44:01;;;;;;;24.52;9.80;;;;;;;12.05;41.46;100441.25;6128995;22;96726;-89
2022/02/24 08:46:26;;;;;;;20.83;9.48;;;;;;;12.21;40.82;100421.31;6130292;22;96862;-82
2022/02/24 08:48:52;;;;;;;27.05;8.05;;;;;;;12.41;39.25;100410.00;6129570;22;97930;-80
2022/02/24 08:51:17;;;;;;;18.25;8.05;;;;;;;12.64;40.08;100432.78;6129823;22;101455;-80
2022/02/24 08:53:43;;;;;;;29.00;9.38;;;;;;;12.83;38.80;100427.63;6154043;22;97040;-81
2022/02/24 08:56:09;;;;;;;21.33;8.52;;;;;;;12.96;39.33;100413.00;6130510;22;96834;-82
2022/02/24 08:58:34;;;;;;;20.45;9.02;;;;;;;13.02;38.53;100390.78;6130155;22;97071;-81
2022/02/24 09:01:00;;;;;;;27.83;9.90;;;;;;;12.91;39.45;100413.19;6129519;22;101253;-81
2022/02/24 09:03:25;;;;;;;28.13;10.05;;;;;;;12.57;39.29;100415.53;6128671;22;97269;-80
2022/02/24 09:05:51;;;;;;;18.15;6.80;;;;;;;12.43;38.70;100409.03;6154866;22;96938;-81
2022/02/24 09:08:16;;;;;;;16.48;6.30;;;;;;;12.48;38.92;100423.75;6128337;22;101409;-76
2022/02/24 09:10:42;;;;;;;18.92;7.47;;;;;;;12.28;38.31;100417.53;6129680;22;97714;-75
2022/02/24 09:13:08;;;;;;;13.07;5.70;;;;;;;12.36;38.65;100407.56;6128826;22;97157;-78
2022/02/24 09:15:35;;;;;;;19.42;7.40;;;;;;;12.57;38.03;100405.00;6130358;22;96840;-75
2022/02/24 09:18:04;;;;;;;15.50;6.97;;;;;;;12.46;37.67;100377.31;6153698;22;98020;-74
2022/02/24 09:20:31;;;;;;;11.65;4.80;;;;;;;12.53;37.99;100380.53;6154513;22;97824;-73
2022/02/24 09:22:57;;;;;;;13.13;5.78;;;;;;;12.65;38.68;100400.22;6180739;22;97997;-72
2022/02/24 09:25:26;;;;;;;13.90;6.45;;;;;;;12.63;38.59;100402.94;6154209;22;96866;-72
2022/02/24 09:27:52;;;;;;;13.55;5.45;;;;;;;13.04;39.01;100396.88;6129343;22;98094;-72
2022/02/24 09:30:17;;;;;;;11.98;5.85;;;;;;;13.39;38.12;100373.41;6129013;22;101492;-73
2022/02/24 09:32:43;;;;;;;15.52;6.95;;;;;;;13.79;37.04;100375.94;6129723;22;96618;-72
2022/02/24 09:35:10;;;;;;;18.98;7.97;;;;;;;13.87;36.94;100364.16;6105466;22;96891;-72
2022/02/24 09:37:44;;;;;;;15.93;6.03;;;;;;;14.23;36.71;100346.56;6102725;22;101503;-72
2022/02/24 09:40:53;;;;;;;17.52;7.97;;;;;;;14.43;36.27;100360.59;6157005;22;97409;-74
2022/02/24 09:44:02;;;;;;;21.40;8.50;;;;;;;14.34;36.39;100364.53;6182023;22;97965;-73
2022/02/24 09:46:29;;;;;;;15.73;6.38;;;;;;;14.25;36.25;100344.72;6181617;22;96875;-74
2022/02/24 09:48:55;;;;;;;17.95;6.05;;;;;;;14.25;36.57;100344.72;6129566;22;101399;-83
2022/02/24 09:51:21;;;;;;;11.65;4.75;;;;;;;14.48;36.67;100343.56;6129762;22;100948;-73
2022/02/24 09:53:47;;;;;;;11.10;4.25;;;;;;;14.58;36.71;100340.50;6130593;22;97189;-83
2022/02/24 09:56:28;;;;;;;10.32;4.88;;;;;;;14.68;36.88;100347.03;6130889;22;96763;-83
2022/02/24 09:58:54;;;;;;;13.52;5.75;;;;;;;14.66;36.41;100339.19;6131112;22;101318;-83
2022/02/24 10:01:20;;;;;;;12.38;5.85;;;;;;;14.62;36.24;100331.50;6130193;22;101235;-85
2022/02/24 10:03:48;;;;;;;14.52;7.47;;;;;;;14.63;36.26;100312.06;6129635;22;97305;-83
2022/02/24 10:06:15;;;;;;;24.08;9.07;;;;;;;14.42;35.84;100322.75;6130444;22;97142;-84
2022/02/24 10:08:48;;;;;;;19.10;7.88;;;;;;;14.17;36.47;100315.19;6129840;22;99208;-83
2022/02/24 10:12:07;;;;;;;17.55;7.63;;;;;;;14.12;36.39;100319.00;6155216;22;97480;-83
2022/02/24 10:14:38;;;;;;;15.27;6.25;;;;;;;13.87;37.17;100288.50;6133360;22;96826;-77
2022/02/24 10:17:05;;;;;;;14.20;4.53;;;;;;;13.50;36.71;100290.25;6156217;22;97037;-83
2022/02/24 10:19:35;;;;;;;20.85;7.03;;;;;;;13.81;37.04;100294.91;6129576;22;97637;-83
2022/02/24 10:22:20;;;;;;;12.88;4.55;;;;;;;14.08;36.61;100289.25;6182688;22;97254;-83
2022/02/24 10:25:00;;;;;;;14.25;6.22;;;;;;;14.18;36.67;100258.81;6156753;22;96682;-83
2022/02/24 10:27:34;;;;;;;31.95;11.00;;;;;;;14.54;36.54;100268.47;6130098;22;96822;-82
2022/02/24 10:30:06;;;;;;;11.90;5.47;;;;;;;14.46;36.75;100274.13;6105669;22;100991;-82
2022/02/24 10:32:34;;;;;;;;;;;;;;;14.24;36.61;100257.66;6129908;22;101360;-82
2022/02/24 10:35:24;;;;;;;11.98;5.55;;;;;;;14.33;37.23;100246.63;6156100;22;97068;-82
2022/02/24 10:38:11;;;;;;;15.00;6.88;;;;;;;13.92;36.78;100236.34;6112102;22;96777;-82
2022/02/24 10:40:45;;;;;;;10.48;4.15;;;;;;;13.59;37.65;100250.25;6130266;22;101504;-82
2022/02/24 10:43:26;;;;;;;9.70;4.45;;;;;;;13.32;37.61;100204.09;6154685;22;98399;-84
2022/02/24 10:45:59;;;;;;;9.68;3.72;;;;;;;13.36;38.39;100226.75;6130749;22;96566;-82
2022/02/24 10:48:25;;;;;;;11.02;3.92;;;;;;;13.32;38.60;100212.00;6129770;22;96903;-82
2022/02/24 10:50:55;;;;;;;19.10;4.50;;;;;;;13.23;39.26;100233.47;6130257;22;98385;-83
2022/02/24 10:53:32;;;;;;;16.85;5.20;;;;;;;12.96;39.73;100222.44;6129230;22;101647;-83
2022/02/24 10:56:09;;;;;;;12.68;5.38;;;;;;;12.76;40.77;100218.91;6130406;22;96588;-82
2022/02/24 10:58:38;;;;;;;13.77;5.07;;;;;;;12.55;41.49;100202.28;6130772;22;96664;-83
2022/02/24 11:01:22;;;;;;;19.35;6.03;;;;;;;12.55;42.05;100212.81;6130378;22;101307;-82
2022/02/24 11:03:48;;;;;;;15.98;6.32;;;;;;;12.39;42.23;100203.88;6154960;22;97752;-83
2022/02/24 11:06:14;;;;;;;14.70;6.22;;;;;;;12.15;42.65;100180.31;6130552;22;96593;-83
2022/02/24 11:08:41;;;;;;;18.45;6.10;;;;;;;12.05;43.41;100200.06;6130450;22;96849;-83
2022/02/24 11:11:07;;;;;;;11.02;5.28;;;;;;;12.00;43.35;100200.25;6155729;22;97399;-82
2022/02/24 11:13:35;;;;;;;17.65;5.32;;;;;;;11.86;43.57;100196.47;6129741;22;100963;-82
2022/02/24 11:16:01;;;;;;;21.25;7.10;;;;;;;11.49;43.96;100176.88;6131050;22;96680;-82
2022/02/24 11:18:27;;;;;;;23.55;7.22;;;;;;;11.69;44.26;100176.09;6129707;22;97494;-82
2022/02/24 11:20:54;;;;;;;15.60;6.18;;;;;;;11.79;44.35;100186.19;6104771;22;100415;-82